Terminal Aerodrome Forecast
Issued by NWS Grand Forks, ND

Home | Current Version | Previous Version | Graphics & Text | Print | Product List | Glossary On
Versions: 1 2 3 4 5 6 7 8 9 10 11 12 13 14 15 16 17 18 19 20
289
FTUS43 KFGF 122330
TAFFAR
TAF
KFAR 122330Z 1300/1324 34011KT P6SM SKC
     FM130100 VRB05KT P6SM SKC
     FM131500 14008KT P6SM SCT250
     FM131800 14013G18KT P6SM BKN120
     FM132100 14017G26KT P6SM BKN080=

USA.gov is the U.S. government's official web portal to all federal, state and local government web resources and services.